WXM80 ListenWXM80 Stop

You find our weather info also at:

UK Metoffice

WeatherCloud

Weather Underground

Northeastern Weather Network

AWEKAS

Citizen Weather Observer Program (CWOP)

HAMweather, WeatherForYou, PWS Weather


Weather Underground History page Text

Daily Summary for January 19, 2017 Units:  Both    English   Metric
« Previous Day
Next Day »
Daily Weekly Monthly Yearly Custom
  High: Low: Average:
Temperature: 49.6 °F /  9.8 °C 33.6 °F /  0.9 °C 41.7 °F /  5.4 °C
Dew Point: 41.1 °F /  5.1 °C 32.1 °F /  0.1 °C 37.4 °F /  3 °C
Humidity: 97 % 70 % 85 %
Wind Speed: 8.2 mph /  13.2 km/h - 1.3 mph /  2.1 km/h
Wind Gust: 12.7 mph /  20.4 km/h - -
Wind:- - WSW
Pressure: 30.02 in /  1016.5 hPa 29.94 in /  1013.8 hPa -
Precipitation: 0.00 in /  0 mm    
Historical Graphs
 
 
Tabular Data for January 19, 2017
Time Temperature Dew Point Pressure Wind Wind Speed Wind Gust Humidity Rainfall Rate (Hourly)
00:04 38.8 °F /  3.8 °C 37.2 °F /  2.9 °C 29.97 in /  1014.8 hPa Calm   2.0 mph /  3.2 km/h 94 % 0.00 in /  0 mm
00:09 38.8 °F /  3.8 °C 37.2 °F /  2.9 °C 29.97 in /  1014.8 hPa North 0.1 mph /  0.2 km/h 1.2 mph /  1.9 km/h 94 % 0.00 in /  0 mm
00:14 38.8 °F /  3.8 °C 37.2 °F /  2.9 °C 29.97 in /  1014.8 hPa North 1.0 mph /  1.6 km/h 4.0 mph /  6.4 km/h 94 % 0.00 in /  0 mm
00:19 38.8 °F /  3.8 °C 37.2 °F /  2.9 °C 29.98 in /  1015.1 hPa Calm   2.0 mph /  3.2 km/h 94 % 0.00 in /  0 mm
00:24 38.8 °F /  3.8 °C 37.2 °F /  2.9 °C 29.98 in /  1015.1 hPa NNW 1.2 mph /  1.9 km/h 2.3 mph /  3.7 km/h 94 % 0.00 in /  0 mm
00:29 38.7 °F /  3.7 °C 37.1 °F /  2.8 °C 29.98 in /  1015.1 hPa Calm   3.0 mph /  4.8 km/h 94 % 0.00 in /  0 mm
00:34 38.7 °F /  3.7 °C 37.1 °F /  2.8 °C 29.98 in /  1015.1 hPa North 0.3 mph /  0.5 km/h 2.3 mph /  3.7 km/h 94 % 0.00 in /  0 mm
00:39 38.7 °F /  3.7 °C 37.1 °F /  2.8 °C 29.98 in /  1015.1 hPa North 1.0 mph /  1.6 km/h 2.0 mph /  3.2 km/h 94 % 0.00 in /  0 mm
00:44 38.7 °F /  3.7 °C 37.1 °F /  2.8 °C 29.98 in /  1015.1 hPa NNW 1.5 mph /  2.4 km/h 3.5 mph /  5.6 km/h 94 % 0.00 in /  0 mm
00:49 38.7 °F /  3.7 °C 37.1 °F /  2.8 °C 29.99 in /  1015.5 hPa Calm   3.0 mph /  4.8 km/h 94 % 0.00 in /  0 mm
00:54 38.6 °F /  3.7 °C 37.0 °F /  2.8 °C 29.98 in /  1015.1 hPa Calm   3.0 mph /  4.8 km/h 94 % 0.00 in /  0 mm
00:59 38.6 °F /  3.7 °C 37.0 °F /  2.8 °C 29.99 in /  1015.5 hPa NNW 0.2 mph /  0.3 km/h 1.2 mph /  1.9 km/h 94 % 0.00 in /  0 mm
01:04 38.6 °F /  3.7 °C 37.0 °F /  2.8 °C 29.99 in /  1015.5 hPa Calm   3.0 mph /  4.8 km/h 94 % 0.00 in /  0 mm
01:09 38.6 °F /  3.7 °C 37.0 °F /  2.8 °C 29.99 in /  1015.5 hPa NNW 1.0 mph /  1.6 km/h 3.0 mph /  4.8 km/h 94 % 0.00 in /  0 mm
01:14 38.5 °F /  3.6 °C 36.9 °F /  2.7 °C 29.99 in /  1015.5 hPa NNW 1.2 mph /  1.9 km/h 3.5 mph /  5.6 km/h 94 % 0.00 in /  0 mm
01:19 38.5 °F /  3.6 °C 36.9 °F /  2.7 °C 29.99 in /  1015.5 hPa Calm   3.0 mph /  4.8 km/h 94 % 0.00 in /  0 mm
01:24 38.4 °F /  3.6 °C 36.8 °F /  2.7 °C 29.99 in /  1015.5 hPa Calm   3.0 mph /  4.8 km/h 94 % 0.00 in /  0 mm
01:29 38.4 °F /  3.6 °C 36.8 °F /  2.7 °C 29.99 in /  1015.5 hPa North 1.0 mph /  1.6 km/h 3.0 mph /  4.8 km/h 94 % 0.00 in /  0 mm
01:34 38.4 °F /  3.6 °C 36.8 °F /  2.7 °C 30.00 in /  1015.8 hPa Calm   3.0 mph /  4.8 km/h 94 % 0.00 in /  0 mm
01:39 38.4 °F /  3.6 °C 36.8 °F /  2.7 °C 30.00 in /  1015.8 hPa Calm     94 % 0.00 in /  0 mm
01:44 38.3 °F /  3.5 °C 36.7 °F /  2.6 °C 30.00 in /  1015.8 hPa Calm   2.0 mph /  3.2 km/h 94 % 0.00 in /  0 mm
01:49 38.3 °F /  3.5 °C 36.7 °F /  2.6 °C 30.00 in /  1015.8 hPa Calm   2.0 mph /  3.2 km/h 94 % 0.00 in /  0 mm
01:54 38.3 °F /  3.5 °C 36.7 °F /  2.6 °C 30.00 in /  1015.8 hPa North 1.0 mph /  1.6 km/h 2.0 mph /  3.2 km/h 94 % 0.00 in /  0 mm
02:00 38.2 °F /  3.4 °C 36.6 °F /  2.6 °C 30.00 in /  1015.8 hPa Calm   2.3 mph /  3.7 km/h 94 % 0.00 in /  0 mm
02:05 38.1 °F /  3.4 °C 36.5 °F /  2.5 °C 30.00 in /  1015.8 hPa Calm     94 % 0.00 in /  0 mm
02:10 38.0 °F /  3.3 °C 36.4 °F /  2.4 °C 30.00 in /  1015.8 hPa Calm     94 % 0.00 in /  0 mm
02:15 38.0 °F /  3.3 °C 36.4 °F /  2.4 °C 30.00 in /  1015.8 hPa Calm     94 % 0.00 in /  0 mm
02:21 37.9 °F /  3.3 °C 36.3 °F /  2.4 °C 30.00 in /  1015.8 hPa Calm     94 % 0.00 in /  0 mm
02:26 37.8 °F /  3.2 °C 36.2 °F /  2.3 °C 30.00 in /  1015.8 hPa Calm     94 % 0.00 in /  0 mm
02:31 37.7 °F /  3.2 °C 35.9 °F /  2.2 °C 30.00 in /  1015.8 hPa Calm     93 % 0.00 in /  0 mm
02:36 37.6 °F /  3.1 °C 35.8 °F /  2.1 °C 30.00 in /  1015.8 hPa Calm     93 % 0.00 in /  0 mm
02:41 37.5 °F /  3.1 °C 35.7 °F /  2.1 °C 30.00 in /  1015.8 hPa Calm     93 % 0.00 in /  0 mm
02:46 37.5 °F /  3.1 °C 35.9 °F /  2.2 °C 30.00 in /  1015.8 hPa Calm     94 % 0.00 in /  0 mm
02:51 37.5 °F /  3.1 °C 35.9 °F /  2.2 °C 29.99 in /  1015.5 hPa Calm     94 % 0.00 in /  0 mm
02:56 37.4 °F /  3 °C 35.8 °F /  2.1 °C 29.99 in /  1015.5 hPa Calm     94 % 0.00 in /  0 mm
03:01 37.4 °F /  3 °C 35.8 °F /  2.1 °C 29.99 in /  1015.5 hPa Calm     94 % 0.00 in /  0 mm
03:06 37.4 °F /  3 °C 35.8 °F /  2.1 °C 30.00 in /  1015.8 hPa Calm     94 % 0.00 in /  0 mm
03:11 37.4 °F /  3 °C 35.8 °F /  2.1 °C 29.99 in /  1015.5 hPa Calm     94 % 0.00 in /  0 mm
03:16 37.4 °F /  3 °C 35.8 °F /  2.1 °C 29.99 in /  1015.5 hPa Calm     94 % 0.00 in /  0 mm
03:21 37.4 °F /  3 °C 35.8 °F /  2.1 °C 29.99 in /  1015.5 hPa Calm     94 % 0.00 in /  0 mm
03:26 37.4 °F /  3 °C 35.8 °F /  2.1 °C 29.99 in /  1015.5 hPa Calm     94 % 0.00 in /  0 mm
03:31 37.4 °F /  3 °C 35.8 °F /  2.1 °C 29.99 in /  1015.5 hPa Calm     94 % 0.00 in /  0 mm
03:36 37.4 °F /  3 °C 35.8 °F /  2.1 °C 29.99 in /  1015.5 hPa Calm     94 % 0.00 in /  0 mm
03:41 37.5 °F /  3.1 °C 35.9 °F /  2.2 °C 29.99 in /  1015.5 hPa Calm     94 % 0.00 in /  0 mm
03:47 37.5 °F /  3.1 °C 35.9 °F /  2.2 °C 30.00 in /  1015.8 hPa Calm   1.2 mph /  1.9 km/h 94 % 0.00 in /  0 mm
03:52 37.5 °F /  3.1 °C 36.2 °F /  2.3 °C 30.00 in /  1015.8 hPa NNW 0.7 mph /  1.1 km/h 2.3 mph /  3.7 km/h 95 % 0.00 in /  0 mm
03:57 37.6 °F /  3.1 °C 36.3 °F /  2.4 °C 30.00 in /  1015.8 hPa Calm   2.3 mph /  3.7 km/h 95 % 0.00 in /  0 mm
04:02 37.7 °F /  3.2 °C 36.4 °F /  2.4 °C 30.00 in /  1015.8 hPa NW 0.2 mph /  0.3 km/h 1.2 mph /  1.9 km/h 95 % 0.00 in /  0 mm
04:07 37.7 °F /  3.2 °C 36.4 °F /  2.4 °C 29.99 in /  1015.5 hPa Calm     95 % 0.00 in /  0 mm
04:12 37.7 °F /  3.2 °C 36.4 °F /  2.4 °C 29.99 in /  1015.5 hPa NW 0.3 mph /  0.5 km/h 1.2 mph /  1.9 km/h 95 % 0.00 in /  0 mm
04:17 37.7 °F /  3.2 °C 36.4 °F /  2.4 °C 29.99 in /  1015.5 hPa Calm   1.0 mph /  1.6 km/h 95 % 0.00 in /  0 mm
04:22 37.8 °F /  3.2 °C 36.5 °F /  2.5 °C 29.99 in /  1015.5 hPa Calm     95 % 0.00 in /  0 mm
04:27 37.8 °F /  3.2 °C 36.5 °F /  2.5 °C 29.99 in /  1015.5 hPa Calm     95 % 0.00 in /  0 mm
04:32 37.7 °F /  3.2 °C 36.4 °F /  2.4 °C 29.99 in /  1015.5 hPa NW 0.1 mph /  0.2 km/h 1.2 mph /  1.9 km/h 95 % 0.00 in /  0 mm
04:37 37.7 °F /  3.2 °C 36.4 °F /  2.4 °C 29.99 in /  1015.5 hPa Calm     95 % 0.00 in /  0 mm
04:42 37.7 °F /  3.2 °C 36.4 °F /  2.4 °C 29.99 in /  1015.5 hPa Calm     95 % 0.00 in /  0 mm
04:47 37.6 °F /  3.1 °C 36.3 °F /  2.4 °C 29.99 in /  1015.5 hPa Calm   1.2 mph /  1.9 km/h 95 % 0.00 in /  0 mm
04:52 37.5 °F /  3.1 °C 36.2 °F /  2.3 °C 29.99 in /  1015.5 hPa Calm     95 % 0.00 in /  0 mm
04:57 37.5 °F /  3.1 °C 36.2 °F /  2.3 °C 29.99 in /  1015.5 hPa Calm     95 % 0.00 in /  0 mm
05:02 37.4 °F /  3 °C 36.1 °F /  2.3 °C 29.99 in /  1015.5 hPa Calm     95 % 0.00 in /  0 mm
05:08 37.3 °F /  2.9 °C 36.0 °F /  2.2 °C 29.99 in /  1015.5 hPa Calm     95 % 0.00 in /  0 mm
05:13 37.3 °F /  2.9 °C 36.0 °F /  2.2 °C 29.98 in /  1015.1 hPa Calm     95 % 0.00 in /  0 mm
05:18 37.2 °F /  2.9 °C 35.9 °F /  2.2 °C 29.98 in /  1015.1 hPa Calm     95 % 0.00 in /  0 mm
05:23 37.2 °F /  2.9 °C 35.9 °F /  2.2 °C 29.98 in /  1015.1 hPa Calm     95 % 0.00 in /  0 mm
05:28 37.1 °F /  2.8 °C 35.8 °F /  2.1 °C 29.98 in /  1015.1 hPa Calm     95 % 0.00 in /  0 mm
05:33 37.1 °F /  2.8 °C 35.8 °F /  2.1 °C 29.99 in /  1015.5 hPa Calm     95 % 0.00 in /  0 mm
05:38 37.0 °F /  2.8 °C 35.7 °F /  2.1 °C 29.99 in /  1015.5 hPa Calm     95 % 0.00 in /  0 mm
05:43 36.8 °F /  2.7 °C 35.5 °F /  1.9 °C 29.99 in /  1015.5 hPa Calm     95 % 0.00 in /  0 mm
05:48 36.7 °F /  2.6 °C 35.4 °F /  1.9 °C 29.99 in /  1015.5 hPa Calm     95 % 0.00 in /  0 mm
05:53 36.6 °F /  2.6 °C 35.3 °F /  1.8 °C 29.99 in /  1015.5 hPa Calm     95 % 0.00 in /  0 mm
05:58 36.4 °F /  2.4 °C 34.8 °F /  1.6 °C 29.99 in /  1015.5 hPa Calm     94 % 0.00 in /  0 mm
06:03 36.2 °F /  2.3 °C 34.6 °F /  1.4 °C 29.99 in /  1015.5 hPa Calm     94 % 0.00 in /  0 mm
06:08 36.0 °F /  2.2 °C 34.4 °F /  1.3 °C 30.00 in /  1015.8 hPa Calm     94 % 0.00 in /  0 mm
06:13 35.9 °F /  2.2 °C 34.3 °F /  1.3 °C 29.99 in /  1015.5 hPa Calm     94 % 0.00 in /  0 mm
06:18 35.6 °F /  2 °C 34.0 °F /  1.1 °C 29.99 in /  1015.5 hPa Calm     94 % 0.00 in /  0 mm
06:23 35.4 °F /  1.9 °C 33.8 °F /  1 °C 29.99 in /  1015.5 hPa NW 0.1 mph /  0.2 km/h 1.0 mph /  1.6 km/h 94 % 0.00 in /  0 mm
06:28 35.3 °F /  1.8 °C 33.7 °F /  0.9 °C 29.99 in /  1015.5 hPa Calm   1.2 mph /  1.9 km/h 94 % 0.00 in /  0 mm
06:33 35.2 °F /  1.8 °C 33.6 °F /  0.9 °C 29.99 in /  1015.5 hPa Calm     94 % 0.00 in /  0 mm
06:39 35.0 °F /  1.7 °C 33.4 °F /  0.8 °C 29.99 in /  1015.5 hPa Calm   1.0 mph /  1.6 km/h 94 % 0.00 in /  0 mm
06:44 34.9 °F /  1.6 °C 33.3 °F /  0.7 °C 29.99 in /  1015.5 hPa Calm     94 % 0.00 in /  0 mm
06:49 34.8 °F /  1.6 °C 33.2 °F /  0.7 °C 29.99 in /  1015.5 hPa Calm     94 % 0.00 in /  0 mm
06:54 34.7 °F /  1.5 °C 33.2 °F /  0.7 °C 29.99 in /  1015.5 hPa Calm     94 % 0.00 in /  0 mm
06:59 34.6 °F /  1.4 °C 33.1 °F /  0.6 °C 29.99 in /  1015.5 hPa Calm     94 % 0.00 in /  0 mm
07:04 34.5 °F /  1.4 °C 33.0 °F /  0.6 °C 30.00 in /  1015.8 hPa Calm     94 % 0.00 in /  0 mm
07:09 34.4 °F /  1.3 °C 32.9 °F /  0.5 °C 30.00 in /  1015.8 hPa Calm     94 % 0.00 in /  0 mm
07:14 34.2 °F /  1.2 °C 32.7 °F /  0.4 °C 30.00 in /  1015.8 hPa NW 0.9 mph /  1.4 km/h 2.3 mph /  3.7 km/h 94 % 0.00 in /  0 mm
07:19 34.1 °F /  1.2 °C 32.6 °F /  0.3 °C 30.00 in /  1015.8 hPa Calm     94 % 0.00 in /  0 mm
07:24 34.0 °F /  1.1 °C 32.5 °F /  0.3 °C 30.00 in /  1015.8 hPa Calm     94 % 0.00 in /  0 mm
07:29 33.9 °F /  1.1 °C 32.4 °F /  0.2 °C 30.00 in /  1015.8 hPa Calm     94 % 0.00 in /  0 mm
07:34 33.8 °F /  1 °C 32.3 °F /  0.2 °C 30.00 in /  1015.8 hPa Calm     94 % 0.00 in /  0 mm
07:39 33.7 °F /  0.9 °C 32.2 °F /  0.1 °C 30.00 in /  1015.8 hPa Calm     94 % 0.00 in /  0 mm
07:44 33.7 °F /  0.9 °C 32.2 °F /  0.1 °C 30.01 in /  1016.1 hPa Calm     94 % 0.00 in /  0 mm
07:49 33.7 °F /  0.9 °C 32.2 °F /  0.1 °C 30.00 in /  1015.8 hPa Calm     94 % 0.00 in /  0 mm
07:55 33.6 °F /  0.9 °C 32.1 °F /  0.1 °C 30.01 in /  1016.1 hPa Calm   1.2 mph /  1.9 km/h 94 % 0.00 in /  0 mm
08:00 33.6 °F /  0.9 °C 32.3 °F /  0.2 °C 30.01 in /  1016.1 hPa Calm   1.2 mph /  1.9 km/h 95 % 0.00 in /  0 mm
08:05 33.6 °F /  0.9 °C 32.1 °F /  0.1 °C 30.01 in /  1016.1 hPa Calm     94 % 0.00 in /  0 mm
08:10 33.8 °F /  1 °C 32.5 °F /  0.3 °C 30.01 in /  1016.1 hPa Calm     95 % 0.00 in /  0 mm
08:15 33.9 °F /  1.1 °C 32.6 °F /  0.3 °C 30.01 in /  1016.1 hPa Calm     95 % 0.00 in /  0 mm
08:20 34.1 °F /  1.2 °C 32.8 °F /  0.4 °C 30.01 in /  1016.1 hPa Calm     95 % 0.00 in /  0 mm
08:25 34.4 °F /  1.3 °C 33.4 °F /  0.8 °C 30.01 in /  1016.1 hPa NW 0.1 mph /  0.2 km/h   96 % 0.00 in /  0 mm
08:30 34.9 °F /  1.6 °C 33.9 °F /  1.1 °C 30.01 in /  1016.1 hPa Calm     96 % 0.00 in /  0 mm
08:35 35.3 °F /  1.8 °C 34.3 °F /  1.3 °C 30.01 in /  1016.1 hPa Calm     96 % 0.00 in /  0 mm
08:40 36.0 °F /  2.2 °C 35.2 °F /  1.8 °C 30.01 in /  1016.1 hPa NW 0.2 mph /  0.3 km/h 2.0 mph /  3.2 km/h 97 % 0.00 in /  0 mm
08:45 36.6 °F /  2.6 °C 35.8 °F /  2.1 °C 30.02 in /  1016.5 hPa Calm     97 % 0.00 in /  0 mm
08:50 37.2 °F /  2.9 °C 36.4 °F /  2.4 °C 30.02 in /  1016.5 hPa NW 1.0 mph /  1.6 km/h 2.3 mph /  3.7 km/h 97 % 0.00 in /  0 mm
08:55 37.8 °F /  3.2 °C 37.0 °F /  2.8 °C 30.01 in /  1016.1 hPa WNW 1.0 mph /  1.6 km/h 2.3 mph /  3.7 km/h 97 % 0.00 in /  0 mm
09:00 38.2 °F /  3.4 °C 37.4 °F /  3 °C 30.02 in /  1016.5 hPa WNW 1.1 mph /  1.8 km/h 2.3 mph /  3.7 km/h 97 % 0.00 in /  0 mm
09:05 38.5 °F /  3.6 °C 37.7 °F /  3.2 °C 30.02 in /  1016.5 hPa WNW 0.1 mph /  0.2 km/h 1.2 mph /  1.9 km/h 97 % 0.00 in /  0 mm
09:10 38.7 °F /  3.7 °C 37.9 °F /  3.3 °C 30.02 in /  1016.5 hPa WSW 1.1 mph /  1.8 km/h 3.5 mph /  5.6 km/h 97 % 0.00 in /  0 mm
09:16 39.0 °F /  3.9 °C 38.2 °F /  3.4 °C 30.02 in /  1016.5 hPa WSW 2.6 mph /  4.2 km/h 4.6 mph /  7.4 km/h 97 % 0.00 in /  0 mm
09:21 39.4 °F /  4.1 °C 38.6 °F /  3.7 °C 30.02 in /  1016.5 hPa WSW 2.2 mph /  3.5 km/h 5.0 mph /  8 km/h 97 % 0.00 in /  0 mm
09:26 39.7 °F /  4.3 °C 38.9 °F /  3.8 °C 30.02 in /  1016.5 hPa WSW 2.0 mph /  3.2 km/h 5.8 mph /  9.3 km/h 97 % 0.00 in /  0 mm
09:31 40.1 °F /  4.5 °C 39.3 °F /  4.1 °C 30.02 in /  1016.5 hPa WSW 4.2 mph /  6.8 km/h 6.0 mph /  9.7 km/h 97 % 0.00 in /  0 mm
09:36 40.5 °F /  4.7 °C 39.7 °F /  4.3 °C 30.02 in /  1016.5 hPa West 4.2 mph /  6.8 km/h 6.0 mph /  9.7 km/h 97 % 0.00 in /  0 mm
09:41 40.9 °F /  4.9 °C 40.1 °F /  4.5 °C 30.02 in /  1016.5 hPa WSW 2.0 mph /  3.2 km/h 4.0 mph /  6.4 km/h 97 % 0.00 in /  0 mm
09:46 41.3 °F /  5.2 °C 40.2 °F /  4.6 °C 30.02 in /  1016.5 hPa WSW 3.3 mph /  5.3 km/h 5.8 mph /  9.3 km/h 96 % 0.00 in /  0 mm
09:51 41.6 °F /  5.3 °C 40.5 °F /  4.7 °C 30.02 in /  1016.5 hPa WSW 1.3 mph /  2.1 km/h 4.0 mph /  6.4 km/h 96 % 0.00 in /  0 mm
09:56 42.1 °F /  5.6 °C 40.8 °F /  4.9 °C 30.02 in /  1016.5 hPa West 2.8 mph /  4.5 km/h 3.5 mph /  5.6 km/h 95 % 0.00 in /  0 mm
10:01 42.6 °F /  5.9 °C 41.0 °F /  5 °C 30.02 in /  1016.5 hPa WSW 3.0 mph /  4.8 km/h 6.0 mph /  9.7 km/h 94 % 0.00 in /  0 mm
10:06 43.0 °F /  6.1 °C 41.1 °F /  5.1 °C 30.02 in /  1016.5 hPa WNW 2.3 mph /  3.7 km/h 3.5 mph /  5.6 km/h 93 % 0.00 in /  0 mm
10:11 43.4 °F /  6.3 °C 40.9 °F /  4.9 °C 30.02 in /  1016.5 hPa WSW 3.0 mph /  4.8 km/h 4.6 mph /  7.4 km/h 91 % 0.00 in /  0 mm
10:16 43.8 °F /  6.6 °C 40.8 °F /  4.9 °C 30.01 in /  1016.1 hPa WNW 3.8 mph /  6.1 km/h 5.0 mph /  8 km/h 89 % 0.00 in /  0 mm
10:21 44.1 °F /  6.7 °C 40.5 °F /  4.7 °C 30.01 in /  1016.1 hPa WNW 2.9 mph /  4.7 km/h 4.6 mph /  7.4 km/h 87 % 0.00 in /  0 mm
10:26 44.3 °F /  6.8 °C 40.4 °F /  4.7 °C 30.01 in /  1016.1 hPa West 3.8 mph /  6.1 km/h 6.9 mph /  11.1 km/h 86 % 0.00 in /  0 mm
10:31 44.7 °F /  7.1 °C 40.5 °F /  4.7 °C 30.01 in /  1016.1 hPa WNW 1.5 mph /  2.4 km/h 3.5 mph /  5.6 km/h 85 % 0.00 in /  0 mm
10:36 44.9 °F /  7.2 °C 40.4 °F /  4.7 °C 30.00 in /  1015.8 hPa NW 2.9 mph /  4.7 km/h 8.1 mph /  13 km/h 84 % 0.00 in /  0 mm
10:42 45.1 °F /  7.3 °C 40.6 °F /  4.8 °C 30.00 in /  1015.8 hPa WSW 1.9 mph /  3.1 km/h 2.0 mph /  3.2 km/h 84 % 0.00 in /  0 mm
10:47 45.4 °F /  7.4 °C 40.5 °F /  4.7 °C 30.00 in /  1015.8 hPa SW 3.6 mph /  5.8 km/h 6.0 mph /  9.7 km/h 83 % 0.00 in /  0 mm
10:52 45.5 °F /  7.5 °C 40.3 °F /  4.6 °C 30.00 in /  1015.8 hPa WNW 3.1 mph /  5 km/h 6.0 mph /  9.7 km/h 82 % 0.00 in /  0 mm
10:57 45.6 °F /  7.6 °C 40.1 °F /  4.5 °C 29.99 in /  1015.5 hPa SW 4.1 mph /  6.6 km/h 4.6 mph /  7.4 km/h 81 % 0.00 in /  0 mm
11:02 45.6 °F /  7.6 °C 39.8 °F /  4.3 °C 29.99 in /  1015.5 hPa WSW 4.7 mph /  7.6 km/h 7.0 mph /  11.3 km/h 80 % 0.00 in /  0 mm
11:07 45.6 °F /  7.6 °C 40.1 °F /  4.5 °C 29.99 in /  1015.5 hPa WSW 2.0 mph /  3.2 km/h 5.8 mph /  9.3 km/h 81 % 0.00 in /  0 mm
11:12 45.7 °F /  7.6 °C 39.9 °F /  4.4 °C 29.99 in /  1015.5 hPa NW 2.0 mph /  3.2 km/h 4.6 mph /  7.4 km/h 80 % 0.00 in /  0 mm
11:17 45.8 °F /  7.7 °C 40.0 °F /  4.4 °C 29.98 in /  1015.1 hPa SSW 2.7 mph /  4.3 km/h 5.8 mph /  9.3 km/h 80 % 0.00 in /  0 mm
11:22 45.8 °F /  7.7 °C 40.0 °F /  4.4 °C 29.98 in /  1015.1 hPa WSW 2.3 mph /  3.7 km/h 4.6 mph /  7.4 km/h 80 % 0.00 in /  0 mm
11:27 45.9 °F /  7.7 °C 40.4 °F /  4.7 °C 29.98 in /  1015.1 hPa WNW 1.8 mph /  2.9 km/h 3.5 mph /  5.6 km/h 81 % 0.00 in /  0 mm
11:32 46.0 °F /  7.8 °C 40.2 °F /  4.6 °C 29.98 in /  1015.1 hPa WSW 2.9 mph /  4.7 km/h 5.8 mph /  9.3 km/h 80 % 0.00 in /  0 mm
11:37 46.0 °F /  7.8 °C 40.2 °F /  4.6 °C 29.97 in /  1014.8 hPa SW 3.6 mph /  5.8 km/h 4.6 mph /  7.4 km/h 80 % 0.00 in /  0 mm
11:42 46.0 °F /  7.8 °C 40.2 °F /  4.6 °C 29.97 in /  1014.8 hPa WNW 2.3 mph /  3.7 km/h 3.5 mph /  5.6 km/h 80 % 0.00 in /  0 mm
11:47 46.1 °F /  7.8 °C 40.3 °F /  4.6 °C 29.97 in /  1014.8 hPa WNW 1.6 mph /  2.6 km/h 4.0 mph /  6.4 km/h 80 % 0.00 in /  0 mm
11:52 46.1 °F /  7.8 °C 40.3 °F /  4.6 °C 29.97 in /  1014.8 hPa WNW 0.1 mph /  0.2 km/h 3.5 mph /  5.6 km/h 80 % 0.00 in /  0 mm
11:57 46.1 °F /  7.8 °C 40.3 °F /  4.6 °C 29.97 in /  1014.8 hPa WSW 1.0 mph /  1.6 km/h 3.5 mph /  5.6 km/h 80 % 0.00 in /  0 mm
12:02 46.2 °F /  7.9 °C 40.4 °F /  4.7 °C 29.97 in /  1014.8 hPa Calm   1.2 mph /  1.9 km/h 80 % 0.00 in /  0 mm
12:08 46.3 °F /  7.9 °C 40.1 °F /  4.5 °C 29.96 in /  1014.4 hPa WSW 1.1 mph /  1.8 km/h 2.3 mph /  3.7 km/h 79 % 0.00 in /  0 mm
12:13 46.5 °F /  8.1 °C 40.3 °F /  4.6 °C 29.96 in /  1014.4 hPa WNW 3.1 mph /  5 km/h 3.5 mph /  5.6 km/h 79 % 0.00 in /  0 mm
12:18 46.7 °F /  8.2 °C 40.5 °F /  4.7 °C 29.96 in /  1014.4 hPa West 1.3 mph /  2.1 km/h 6.0 mph /  9.7 km/h 79 % 0.00 in /  0 mm
12:23 47.1 °F /  8.4 °C 40.6 °F /  4.8 °C 29.96 in /  1014.4 hPa NNW 0.3 mph /  0.5 km/h 3.5 mph /  5.6 km/h 78 % 0.00 in /  0 mm
12:28 47.5 °F /  8.6 °C 40.3 °F /  4.6 °C 29.96 in /  1014.4 hPa WNW 2.4 mph /  3.9 km/h 6.9 mph /  11.1 km/h 76 % 0.00 in /  0 mm
12:33 47.8 °F /  8.8 °C 40.3 °F /  4.6 °C 29.96 in /  1014.4 hPa SW 2.9 mph /  4.7 km/h 3.5 mph /  5.6 km/h 75 % 0.00 in /  0 mm
12:38 48.1 °F /  8.9 °C 40.2 °F /  4.6 °C 29.97 in /  1014.8 hPa WNW 4.6 mph /  7.4 km/h 8.1 mph /  13 km/h 74 % 0.00 in /  0 mm
12:43 48.4 °F /  9.1 °C 40.1 °F /  4.5 °C 29.96 in /  1014.4 hPa WSW 3.8 mph /  6.1 km/h 6.9 mph /  11.1 km/h 73 % 0.00 in /  0 mm
12:48 48.7 °F /  9.3 °C 40.1 °F /  4.5 °C 29.97 in /  1014.8 hPa NW 4.5 mph /  7.2 km/h 9.2 mph /  14.8 km/h 72 % 0.00 in /  0 mm
12:53 48.9 °F /  9.4 °C 40.3 °F /  4.6 °C 29.96 in /  1014.4 hPa WSW 3.1 mph /  5 km/h 4.6 mph /  7.4 km/h 72 % 0.00 in /  0 mm
12:58 49.1 °F /  9.5 °C 40.1 °F /  4.5 °C 29.96 in /  1014.4 hPa WNW 3.9 mph /  6.3 km/h 9.2 mph /  14.8 km/h 71 % 0.00 in /  0 mm
13:03 49.4 °F /  9.7 °C 40.7 °F /  4.8 °C 29.96 in /  1014.4 hPa NW 2.8 mph /  4.5 km/h 4.6 mph /  7.4 km/h 72 % 0.00 in /  0 mm
13:08 49.5 °F /  9.7 °C 40.5 °F /  4.7 °C 29.96 in /  1014.4 hPa WNW 2.7 mph /  4.3 km/h 5.8 mph /  9.3 km/h 71 % 0.00 in /  0 mm
13:13 49.6 °F /  9.8 °C 40.9 °F /  4.9 °C 29.96 in /  1014.4 hPa NW 1.8 mph /  2.9 km/h 3.0 mph /  4.8 km/h 72 % 0.00 in /  0 mm
13:18 49.6 °F /  9.8 °C 40.6 °F /  4.8 °C 29.96 in /  1014.4 hPa WNW 1.7 mph /  2.7 km/h 4.0 mph /  6.4 km/h 71 % 0.00 in /  0 mm
13:23 49.6 °F /  9.8 °C 40.2 °F /  4.6 °C 29.95 in /  1014.1 hPa WNW 2.2 mph /  3.5 km/h 4.0 mph /  6.4 km/h 70 % 0.00 in /  0 mm
13:28 49.5 °F /  9.7 °C 40.1 °F /  4.5 °C 29.95 in /  1014.1 hPa NW 1.1 mph /  1.8 km/h 3.5 mph /  5.6 km/h 70 % 0.00 in /  0 mm
13:34 49.4 °F /  9.7 °C 40.4 °F /  4.7 °C 29.95 in /  1014.1 hPa NW 2.3 mph /  3.7 km/h 3.5 mph /  5.6 km/h 71 % 0.00 in /  0 mm
13:39 49.3 °F /  9.6 °C 40.3 °F /  4.6 °C 29.95 in /  1014.1 hPa NNW 2.2 mph /  3.5 km/h 3.5 mph /  5.6 km/h 71 % 0.00 in /  0 mm
13:44 49.2 °F /  9.6 °C 40.2 °F /  4.6 °C 29.95 in /  1014.1 hPa NW 0.7 mph /  1.1 km/h 3.5 mph /  5.6 km/h 71 % 0.00 in /  0 mm
13:49 49.1 °F /  9.5 °C 40.1 °F /  4.5 °C 29.94 in /  1013.8 hPa WNW 1.0 mph /  1.6 km/h 4.0 mph /  6.4 km/h 71 % 0.00 in /  0 mm
13:54 49.0 °F /  9.4 °C 40.0 °F /  4.4 °C 29.94 in /  1013.8 hPa WNW 1.0 mph /  1.6 km/h 5.0 mph /  8 km/h 71 % 0.00 in /  0 mm
13:59 48.8 °F /  9.3 °C 39.8 °F /  4.3 °C 29.94 in /  1013.8 hPa WNW 1.8 mph /  2.9 km/h 3.5 mph /  5.6 km/h 71 % 0.00 in /  0 mm
14:04 48.8 °F /  9.3 °C 40.2 °F /  4.6 °C 29.94 in /  1013.8 hPa Calm   3.0 mph /  4.8 km/h 72 % 0.00 in /  0 mm
14:09 48.7 °F /  9.3 °C 40.1 °F /  4.5 °C 29.94 in /  1013.8 hPa WNW 1.0 mph /  1.6 km/h 3.0 mph /  4.8 km/h 72 % 0.00 in /  0 mm
14:14 48.7 °F /  9.3 °C 40.1 °F /  4.5 °C 29.94 in /  1013.8 hPa WNW 1.0 mph /  1.6 km/h 3.0 mph /  4.8 km/h 72 % 0.00 in /  0 mm
14:19 48.7 °F /  9.3 °C 40.1 °F /  4.5 °C 29.94 in /  1013.8 hPa WNW 1.0 mph /  1.6 km/h 2.0 mph /  3.2 km/h 72 % 0.00 in /  0 mm
14:24 48.5 °F /  9.2 °C 39.5 °F /  4.2 °C 29.95 in /  1014.1 hPa WNW 0.7 mph /  1.1 km/h 3.5 mph /  5.6 km/h 71 % 0.00 in /  0 mm
14:29 48.4 °F /  9.1 °C 39.4 °F /  4.1 °C 29.95 in /  1014.1 hPa WNW 2.0 mph /  3.2 km/h 4.0 mph /  6.4 km/h 71 % 0.00 in /  0 mm
14:34 48.3 °F /  9.1 °C 40.0 °F /  4.4 °C 29.95 in /  1014.1 hPa Calm   2.0 mph /  3.2 km/h 73 % 0.00 in /  0 mm
14:39 48.2 °F /  9 °C 39.6 °F /  4.2 °C 29.95 in /  1014.1 hPa North 1.0 mph /  1.6 km/h 4.0 mph /  6.4 km/h 72 % 0.00 in /  0 mm
14:44 48.1 °F /  8.9 °C 39.5 °F /  4.2 °C 29.95 in /  1014.1 hPa Calm   3.0 mph /  4.8 km/h 72 % 0.00 in /  0 mm
14:49 48.1 °F /  8.9 °C 39.9 °F /  4.4 °C 29.95 in /  1014.1 hPa Calm   2.0 mph /  3.2 km/h 73 % 0.00 in /  0 mm
14:54 48.0 °F /  8.9 °C 39.4 °F /  4.1 °C 29.95 in /  1014.1 hPa NNW 1.0 mph /  1.6 km/h 3.0 mph /  4.8 km/h 72 % 0.00 in /  0 mm
14:59 47.9 °F /  8.8 °C 39.7 °F /  4.3 °C 29.95 in /  1014.1 hPa NW 0.2 mph /  0.3 km/h 2.3 mph /  3.7 km/h 73 % 0.00 in /  0 mm
15:04 47.9 °F /  8.8 °C 39.7 °F /  4.3 °C 29.95 in /  1014.1 hPa NNW 2.7 mph /  4.3 km/h 3.5 mph /  5.6 km/h 73 % 0.00 in /  0 mm
15:09 47.8 °F /  8.8 °C 39.6 °F /  4.2 °C 29.94 in /  1013.8 hPa NNW 0.5 mph /  0.8 km/h 2.3 mph /  3.7 km/h 73 % 0.00 in /  0 mm
15:14 47.7 °F /  8.7 °C 39.5 °F /  4.2 °C 29.94 in /  1013.8 hPa NW 1.6 mph /  2.6 km/h 3.5 mph /  5.6 km/h 73 % 0.00 in /  0 mm
15:19 47.7 °F /  8.7 °C 39.5 °F /  4.2 °C 29.94 in /  1013.8 hPa WNW 1.8 mph /  2.9 km/h 4.0 mph /  6.4 km/h 73 % 0.00 in /  0 mm
15:24 47.6 °F /  8.7 °C 39.7 °F /  4.3 °C 29.94 in /  1013.8 hPa WSW 2.8 mph /  4.5 km/h 4.6 mph /  7.4 km/h 74 % 0.00 in /  0 mm
15:29 47.4 °F /  8.6 °C 39.5 °F /  4.2 °C 29.94 in /  1013.8 hPa WNW 1.7 mph /  2.7 km/h 6.0 mph /  9.7 km/h 74 % 0.00 in /  0 mm
15:34 47.2 °F /  8.4 °C 39.0 °F /  3.9 °C 29.94 in /  1013.8 hPa West 2.2 mph /  3.5 km/h 5.0 mph /  8 km/h 73 % 0.00 in /  0 mm
15:39 47.0 °F /  8.3 °C 39.1 °F /  3.9 °C 29.94 in /  1013.8 hPa NW 2.0 mph /  3.2 km/h 3.5 mph /  5.6 km/h 74 % 0.00 in /  0 mm
15:44 46.8 °F /  8.2 °C 38.9 °F /  3.8 °C 29.94 in /  1013.8 hPa West 2.6 mph /  4.2 km/h 5.8 mph /  9.3 km/h 74 % 0.00 in /  0 mm
15:49 46.7 °F /  8.2 °C 39.2 °F /  4 °C 29.94 in /  1013.8 hPa WSW 1.8 mph /  2.9 km/h 3.5 mph /  5.6 km/h 75 % 0.00 in /  0 mm
15:55 46.5 °F /  8.1 °C 39.0 °F /  3.9 °C 29.94 in /  1013.8 hPa WSW 3.3 mph /  5.3 km/h 8.1 mph /  13 km/h 75 % 0.00 in /  0 mm
16:00 46.4 °F /  8 °C 38.9 °F /  3.8 °C 29.94 in /  1013.8 hPa West 0.9 mph /  1.4 km/h 4.6 mph /  7.4 km/h 75 % 0.00 in /  0 mm
16:05 46.3 °F /  7.9 °C 38.8 °F /  3.8 °C 29.94 in /  1013.8 hPa WSW 1.3 mph /  2.1 km/h 3.5 mph /  5.6 km/h 75 % 0.00 in /  0 mm
16:10 46.2 °F /  7.9 °C 38.7 °F /  3.7 °C 29.95 in /  1014.1 hPa West 2.6 mph /  4.2 km/h 5.0 mph /  8 km/h 75 % 0.00 in /  0 mm
16:15 46.1 °F /  7.8 °C 38.6 °F /  3.7 °C 29.94 in /  1013.8 hPa West 1.4 mph /  2.3 km/h 3.5 mph /  5.6 km/h 75 % 0.00 in /  0 mm
16:20 46.0 °F /  7.8 °C 38.9 °F /  3.8 °C 29.94 in /  1013.8 hPa West 0.7 mph /  1.1 km/h 3.5 mph /  5.6 km/h 76 % 0.00 in /  0 mm
16:25 45.9 °F /  7.7 °C 38.4 °F /  3.6 °C 29.94 in /  1013.8 hPa WNW 3.3 mph /  5.3 km/h 3.5 mph /  5.6 km/h 75 % 0.00 in /  0 mm
16:30 45.8 °F /  7.7 °C 38.3 °F /  3.5 °C 29.94 in /  1013.8 hPa West 3.3 mph /  5.3 km/h 3.5 mph /  5.6 km/h 75 % 0.00 in /  0 mm
16:35 45.8 °F /  7.7 °C 38.3 °F /  3.5 °C 29.94 in /  1013.8 hPa West 1.1 mph /  1.8 km/h 3.5 mph /  5.6 km/h 75 % 0.00 in /  0 mm
16:40 45.6 °F /  7.6 °C 38.1 °F /  3.4 °C 29.95 in /  1014.1 hPa WSW 3.4 mph /  5.5 km/h 4.0 mph /  6.4 km/h 75 % 0.00 in /  0 mm
16:45 45.5 °F /  7.5 °C 38.4 °F /  3.6 °C 29.95 in /  1014.1 hPa WSW 2.9 mph /  4.7 km/h 4.6 mph /  7.4 km/h 76 % 0.00 in /  0 mm
16:50 45.5 °F /  7.5 °C 38.4 °F /  3.6 °C 29.95 in /  1014.1 hPa Calm   2.3 mph /  3.7 km/h 76 % 0.00 in /  0 mm
16:55 45.4 °F /  7.4 °C 38.3 °F /  3.5 °C 29.95 in /  1014.1 hPa West 0.8 mph /  1.3 km/h 2.0 mph /  3.2 km/h 76 % 0.00 in /  0 mm
17:00 45.4 °F /  7.4 °C 37.9 °F /  3.3 °C 29.96 in /  1014.4 hPa West 3.4 mph /  5.5 km/h 6.9 mph /  11.1 km/h 75 % 0.00 in /  0 mm
17:05 45.2 °F /  7.3 °C 37.7 °F /  3.2 °C 29.96 in /  1014.4 hPa WSW 2.5 mph /  4 km/h 5.8 mph /  9.3 km/h 75 % 0.00 in /  0 mm
17:10 45.2 °F /  7.3 °C 37.7 °F /  3.2 °C 29.96 in /  1014.4 hPa WNW 2.0 mph /  3.2 km/h 3.5 mph /  5.6 km/h 75 % 0.00 in /  0 mm
17:15 45.2 °F /  7.3 °C 37.7 °F /  3.2 °C 29.96 in /  1014.4 hPa West 2.9 mph /  4.7 km/h 4.6 mph /  7.4 km/h 75 % 0.00 in /  0 mm
17:20 45.1 °F /  7.3 °C 37.6 °F /  3.1 °C 29.96 in /  1014.4 hPa WSW 3.5 mph /  5.6 km/h 6.9 mph /  11.1 km/h 75 % 0.00 in /  0 mm
17:30 45.1 °F /  7.3 °C 37.6 °F /  3.1 °C 29.96 in /  1014.4 hPa WSW 2.9 mph /  4.7 km/h 4.0 mph /  6.4 km/h 75 % 0.00 in /  0 mm
17:35 45.0 °F /  7.2 °C 37.6 °F /  3.1 °C 29.97 in /  1014.8 hPa WSW 0.5 mph /  0.8 km/h 3.5 mph /  5.6 km/h 75 % 0.00 in /  0 mm
17:40 44.9 °F /  7.2 °C 37.8 °F /  3.2 °C 29.97 in /  1014.8 hPa SW 1.1 mph /  1.8 km/h 3.5 mph /  5.6 km/h 76 % 0.00 in /  0 mm
17:45 44.9 °F /  7.2 °C 37.8 °F /  3.2 °C 29.97 in /  1014.8 hPa WSW 3.1 mph /  5 km/h 4.6 mph /  7.4 km/h 76 % 0.00 in /  0 mm
17:50 44.7 °F /  7.1 °C 37.6 °F /  3.1 °C 29.97 in /  1014.8 hPa WSW 0.4 mph /  0.6 km/h 2.3 mph /  3.7 km/h 76 % 0.00 in /  0 mm
17:55 44.6 °F /  7 °C 37.8 °F /  3.2 °C 29.97 in /  1014.8 hPa WSW 0.1 mph /  0.2 km/h 1.2 mph /  1.9 km/h 77 % 0.00 in /  0 mm
18:01 44.6 °F /  7 °C 37.5 °F /  3.1 °C 29.97 in /  1014.8 hPa WSW 0.1 mph /  0.2 km/h 1.2 mph /  1.9 km/h 76 % 0.00 in /  0 mm
18:06 44.5 °F /  6.9 °C 37.4 °F /  3 °C 29.97 in /  1014.8 hPa West 0.9 mph /  1.4 km/h 4.0 mph /  6.4 km/h 76 % 0.00 in /  0 mm
18:11 44.4 °F /  6.9 °C 37.3 °F /  2.9 °C 29.97 in /  1014.8 hPa WNW 1.5 mph /  2.4 km/h 2.0 mph /  3.2 km/h 76 % 0.00 in /  0 mm
18:16 44.4 °F /  6.9 °C 37.3 °F /  2.9 °C 29.98 in /  1015.1 hPa Calm   2.3 mph /  3.7 km/h 76 % 0.00 in /  0 mm
18:21 44.3 °F /  6.8 °C 37.5 °F /  3.1 °C 29.98 in /  1015.1 hPa Calm   1.2 mph /  1.9 km/h 77 % 0.00 in /  0 mm
18:26 44.2 °F /  6.8 °C 37.4 °F /  3 °C 29.98 in /  1015.1 hPa SSW 1.6 mph /  2.6 km/h 2.3 mph /  3.7 km/h 77 % 0.00 in /  0 mm
18:31 44.2 °F /  6.8 °C 37.4 °F /  3 °C 29.99 in /  1015.5 hPa SSW 1.0 mph /  1.6 km/h 2.3 mph /  3.7 km/h 77 % 0.00 in /  0 mm
18:36 44.1 °F /  6.7 °C 37.7 °F /  3.2 °C 29.99 in /  1015.5 hPa SSW 1.0 mph /  1.6 km/h 2.3 mph /  3.7 km/h 78 % 0.00 in /  0 mm
18:41 44.1 °F /  6.7 °C 37.7 °F /  3.2 °C 30.00 in /  1015.8 hPa SSW 0.4 mph /  0.6 km/h 2.3 mph /  3.7 km/h 78 % 0.00 in /  0 mm
18:46 44.0 °F /  6.7 °C 37.6 °F /  3.1 °C 30.00 in /  1015.8 hPa Calm   1.0 mph /  1.6 km/h 78 % 0.00 in /  0 mm
18:51 44.0 °F /  6.7 °C 37.6 °F /  3.1 °C 30.00 in /  1015.8 hPa West 0.6 mph /  1 km/h 3.0 mph /  4.8 km/h 78 % 0.00 in /  0 mm
18:56 43.9 °F /  6.6 °C 37.5 °F /  3.1 °C 30.00 in /  1015.8 hPa West 0.1 mph /  0.2 km/h 1.2 mph /  1.9 km/h 78 % 0.00 in /  0 mm
19:01 43.8 °F /  6.6 °C 37.4 °F /  3 °C 30.00 in /  1015.8 hPa Calm   1.2 mph /  1.9 km/h 78 % 0.00 in /  0 mm
19:06 43.8 °F /  6.6 °C 37.4 °F /  3 °C 30.00 in /  1015.8 hPa West 0.2 mph /  0.3 km/h 1.2 mph /  1.9 km/h 78 % 0.00 in /  0 mm
19:11 43.8 °F /  6.6 °C 37.4 °F /  3 °C 30.00 in /  1015.8 hPa WNW 0.9 mph /  1.4 km/h 1.2 mph /  1.9 km/h 78 % 0.00 in /  0 mm
19:17 43.7 °F /  6.5 °C 37.3 °F /  2.9 °C 29.99 in /  1015.5 hPa WNW 0.4 mph /  0.6 km/h 2.3 mph /  3.7 km/h 78 % 0.00 in /  0 mm
19:22 43.7 °F /  6.5 °C 37.3 °F /  2.9 °C 29.99 in /  1015.5 hPa SSW 0.6 mph /  1 km/h 1.2 mph /  1.9 km/h 78 % 0.00 in /  0 mm
19:27 43.7 °F /  6.5 °C 37.6 °F /  3.1 °C 29.99 in /  1015.5 hPa SW 0.4 mph /  0.6 km/h 1.2 mph /  1.9 km/h 79 % 0.00 in /  0 mm
19:32 43.6 °F /  6.4 °C 37.5 °F /  3.1 °C 29.99 in /  1015.5 hPa SSW 2.6 mph /  4.2 km/h 3.5 mph /  5.6 km/h 79 % 0.00 in /  0 mm
19:37 43.5 °F /  6.4 °C 37.4 °F /  3 °C 29.99 in /  1015.5 hPa SW 0.4 mph /  0.6 km/h 2.3 mph /  3.7 km/h 79 % 0.00 in /  0 mm
19:42 43.5 °F /  6.4 °C 37.4 °F /  3 °C 30.00 in /  1015.8 hPa SW 1.8 mph /  2.9 km/h 2.3 mph /  3.7 km/h 79 % 0.00 in /  0 mm
19:47 43.4 °F /  6.3 °C 37.6 °F /  3.1 °C 30.00 in /  1015.8 hPa SW 0.1 mph /  0.2 km/h 2.3 mph /  3.7 km/h 80 % 0.00 in /  0 mm
19:52 43.3 °F /  6.3 °C 37.5 °F /  3.1 °C 30.01 in /  1016.1 hPa WSW 2.1 mph /  3.4 km/h 4.6 mph /  7.4 km/h 80 % 0.00 in /  0 mm
19:57 43.2 °F /  6.2 °C 37.4 °F /  3 °C 30.00 in /  1015.8 hPa WSW 2.3 mph /  3.7 km/h 3.5 mph /  5.6 km/h 80 % 0.00 in /  0 mm
20:02 43.1 °F /  6.2 °C 37.3 °F /  2.9 °C 30.00 in /  1015.8 hPa WSW 1.2 mph /  1.9 km/h 2.3 mph /  3.7 km/h 80 % 0.00 in /  0 mm
20:07 43.1 °F /  6.2 °C 37.3 °F /  2.9 °C 30.00 in /  1015.8 hPa WSW 1.1 mph /  1.8 km/h 2.3 mph /  3.7 km/h 80 % 0.00 in /  0 mm
20:12 43.0 °F /  6.1 °C 37.3 °F /  2.9 °C 30.01 in /  1016.1 hPa SW 3.1 mph /  5 km/h 4.6 mph /  7.4 km/h 80 % 0.00 in /  0 mm
20:17 43.0 °F /  6.1 °C 37.3 °F /  2.9 °C 30.01 in /  1016.1 hPa WSW 2.8 mph /  4.5 km/h 4.6 mph /  7.4 km/h 80 % 0.00 in /  0 mm
20:22 43.0 °F /  6.1 °C 37.3 °F /  2.9 °C 30.00 in /  1015.8 hPa WSW 0.9 mph /  1.4 km/h 2.0 mph /  3.2 km/h 80 % 0.00 in /  0 mm
20:27 42.9 °F /  6.1 °C 37.2 °F /  2.9 °C 30.00 in /  1015.8 hPa West 2.1 mph /  3.4 km/h 3.5 mph /  5.6 km/h 80 % 0.00 in /  0 mm
20:32 42.9 °F /  6.1 °C 37.2 °F /  2.9 °C 30.01 in /  1016.1 hPa West 1.0 mph /  1.6 km/h 2.3 mph /  3.7 km/h 80 % 0.00 in /  0 mm
20:37 42.9 °F /  6.1 °C 37.2 °F /  2.9 °C 30.01 in /  1016.1 hPa WSW 1.0 mph /  1.6 km/h 2.3 mph /  3.7 km/h 80 % 0.00 in /  0 mm
20:43 42.9 °F /  6.1 °C 37.2 °F /  2.9 °C 30.00 in /  1015.8 hPa WNW 1.5 mph /  2.4 km/h 3.5 mph /  5.6 km/h 80 % 0.00 in /  0 mm
20:48 42.9 °F /  6.1 °C 37.2 °F /  2.9 °C 30.00 in /  1015.8 hPa Calm     80 % 0.00 in /  0 mm
20:53 42.8 °F /  6 °C 37.1 °F /  2.8 °C 30.00 in /  1015.8 hPa Calm     80 % 0.00 in /  0 mm
20:58 42.8 °F /  6 °C 37.4 °F /  3 °C 30.00 in /  1015.8 hPa Calm     81 % 0.00 in /  0 mm
21:03 42.8 °F /  6 °C 37.4 °F /  3 °C 30.00 in /  1015.8 hPa WNW 0.7 mph /  1.1 km/h 2.3 mph /  3.7 km/h 81 % 0.00 in /  0 mm
21:08 42.7 °F /  5.9 °C 37.3 °F /  2.9 °C 30.00 in /  1015.8 hPa Calm     81 % 0.00 in /  0 mm
21:13 42.7 °F /  5.9 °C 37.3 °F /  2.9 °C 30.00 in /  1015.8 hPa Calm     81 % 0.00 in /  0 mm
21:18 42.7 °F /  5.9 °C 37.3 °F /  2.9 °C 30.00 in /  1015.8 hPa Calm     81 % 0.00 in /  0 mm
21:23 42.6 °F /  5.9 °C 37.5 °F /  3.1 °C 30.00 in /  1015.8 hPa Calm     82 % 0.00 in /  0 mm
21:28 42.5 °F /  5.8 °C 37.4 °F /  3 °C 30.00 in /  1015.8 hPa Calm     82 % 0.00 in /  0 mm
21:33 42.5 °F /  5.8 °C 37.4 °F /  3 °C 30.00 in /  1015.8 hPa Calm     82 % 0.00 in /  0 mm
21:38 42.4 °F /  5.8 °C 37.3 °F /  2.9 °C 30.00 in /  1015.8 hPa Calm     82 % 0.00 in /  0 mm
21:43 42.3 °F /  5.7 °C 37.2 °F /  2.9 °C 30.00 in /  1015.8 hPa Calm     82 % 0.00 in /  0 mm
21:48 42.3 °F /  5.7 °C 37.2 °F /  2.9 °C 29.99 in /  1015.5 hPa Calm     82 % 0.00 in /  0 mm
21:53 42.2 °F /  5.7 °C 37.1 °F /  2.8 °C 29.99 in /  1015.5 hPa WNW 0.2 mph /  0.3 km/h 1.2 mph /  1.9 km/h 82 % 0.00 in /  0 mm
21:59 42.2 °F /  5.7 °C 37.4 °F /  3 °C 29.99 in /  1015.5 hPa NW 0.5 mph /  0.8 km/h 2.0 mph /  3.2 km/h 83 % 0.00 in /  0 mm
22:04 42.1 °F /  5.6 °C 37.3 °F /  2.9 °C 29.99 in /  1015.5 hPa NW 1.5 mph /  2.4 km/h 2.3 mph /  3.7 km/h 83 % 0.00 in /  0 mm
22:09 42.0 °F /  5.6 °C 37.2 °F /  2.9 °C 29.99 in /  1015.5 hPa North 3.2 mph /  5.1 km/h 4.6 mph /  7.4 km/h 83 % 0.00 in /  0 mm
22:14 42.0 °F /  5.6 °C 37.2 °F /  2.9 °C 29.99 in /  1015.5 hPa NNE 2.5 mph /  4 km/h 5.8 mph /  9.3 km/h 83 % 0.00 in /  0 mm
22:19 41.9 °F /  5.5 °C 37.1 °F /  2.8 °C 29.99 in /  1015.5 hPa NNE 3.0 mph /  4.8 km/h 6.0 mph /  9.7 km/h 83 % 0.00 in /  0 mm
22:24 41.8 °F /  5.4 °C 37.0 °F /  2.8 °C 29.99 in /  1015.5 hPa NNE 3.0 mph /  4.8 km/h 7.0 mph /  11.3 km/h 83 % 0.00 in /  0 mm
22:29 41.8 °F /  5.4 °C 37.0 °F /  2.8 °C 29.99 in /  1015.5 hPa NNE 5.0 mph /  8 km/h 10.0 mph /  16.1 km/h 83 % 0.00 in /  0 mm
22:34 41.7 °F /  5.4 °C 37.2 °F /  2.9 °C 29.99 in /  1015.5 hPa NNE 3.0 mph /  4.8 km/h 8.0 mph /  12.9 km/h 84 % 0.00 in /  0 mm
22:39 41.7 °F /  5.4 °C 37.2 °F /  2.9 °C 29.99 in /  1015.5 hPa NNE 3.0 mph /  4.8 km/h 6.0 mph /  9.7 km/h 84 % 0.00 in /  0 mm
22:44 41.7 °F /  5.4 °C 37.2 °F /  2.9 °C 29.99 in /  1015.5 hPa NNE 1.0 mph /  1.6 km/h 6.0 mph /  9.7 km/h 84 % 0.00 in /  0 mm
22:49 41.6 °F /  5.3 °C 37.1 °F /  2.8 °C 29.99 in /  1015.5 hPa NNE 2.0 mph /  3.2 km/h 5.0 mph /  8 km/h 84 % 0.00 in /  0 mm
22:54 41.6 °F /  5.3 °C 37.1 °F /  2.8 °C 29.99 in /  1015.5 hPa NNE 3.0 mph /  4.8 km/h 7.0 mph /  11.3 km/h 84 % 0.00 in /  0 mm
22:59 41.5 °F /  5.3 °C 37.0 °F /  2.8 °C 29.98 in /  1015.1 hPa NNE 5.1 mph /  8.2 km/h 8.1 mph /  13 km/h 84 % 0.00 in /  0 mm
23:04 41.5 °F /  5.3 °C 36.7 °F /  2.6 °C 29.99 in /  1015.5 hPa NNE 6.0 mph /  9.7 km/h 8.1 mph /  13 km/h 83 % 0.00 in /  0 mm
23:09 41.4 °F /  5.2 °C 36.3 °F /  2.4 °C 29.98 in /  1015.1 hPa NNE 4.6 mph /  7.4 km/h 9.2 mph /  14.8 km/h 82 % 0.00 in /  0 mm
23:14 41.3 °F /  5.2 °C 35.9 °F /  2.2 °C 29.98 in /  1015.1 hPa NNE 7.5 mph /  12.1 km/h 12.7 mph /  20.4 km/h 81 % 0.00 in /  0 mm
23:19 41.3 °F /  5.2 °C 35.9 °F /  2.2 °C 29.99 in /  1015.5 hPa NNE 7.9 mph /  12.7 km/h 11.5 mph /  18.5 km/h 81 % 0.00 in /  0 mm
23:24 41.2 °F /  5.1 °C 35.8 °F /  2.1 °C 29.99 in /  1015.5 hPa NNE 7.3 mph /  11.7 km/h 12.7 mph /  20.4 km/h 81 % 0.00 in /  0 mm
23:29 41.2 °F /  5.1 °C 35.5 °F /  1.9 °C 29.99 in /  1015.5 hPa NE 6.4 mph /  10.3 km/h 12.0 mph /  19.3 km/h 80 % 0.00 in /  0 mm
23:34 41.2 °F /  5.1 °C 35.5 °F /  1.9 °C 29.99 in /  1015.5 hPa NNE 8.2 mph /  13.2 km/h 12.0 mph /  19.3 km/h 80 % 0.00 in /  0 mm
23:39 41.2 °F /  5.1 °C 35.5 °F /  1.9 °C 29.99 in /  1015.5 hPa NNE 4.7 mph /  7.6 km/h 7.0 mph /  11.3 km/h 80 % 0.00 in /  0 mm
23:44 41.1 °F /  5.1 °C 35.4 °F /  1.9 °C 29.99 in /  1015.5 hPa North 6.2 mph /  10 km/h 9.2 mph /  14.8 km/h 80 % 0.00 in /  0 mm
23:49 41.1 °F /  5.1 °C 34.8 °F /  1.6 °C 29.99 in /  1015.5 hPa NNE 5.2 mph /  8.4 km/h 6.9 mph /  11.1 km/h 78 % 0.00 in /  0 mm
23:54 41.1 °F /  5.1 °C 34.8 °F /  1.6 °C 29.99 in /  1015.5 hPa North 2.2 mph /  3.5 km/h 3.5 mph /  5.6 km/h 78 % 0.00 in /  0 mm
23:59 41.0 °F /  5 °C 34.7 °F /  1.5 °C 29.99 in /  1015.5 hPa North 1.1 mph /  1.8 km/h 5.0 mph /  8 km/h 78 % 0.00 in /  0 mm
Crab Meadow Weather
Compliments of Weather Underground - 3 mb

Script developed by  Jim McMurry - jmcmurry@mwt.net Adapted for the template by  Wim van der Kuil - Leuven-Template.eu

Astronomy: It takes Saturn exactly 29.46 years to travel once around the Sun.